Time;durP1;ratioP1;P1;durP2;ratioP2;P2;SDS_P1;SDS_P2;PMS_P1;PMS_P2;Temp;Humidity;BMP_temperature;BMP_pressure;BME280_temperature;BME280_humidity;BME280_pressure;Samples;Min_cycle;Max_cycle;Signal;HPM_P1;HPM_P2
2023/04/08 00:01:59;;;;;;;14.32;5.28;;;10.60;93.50;;;;;;5099035;28;20027;-67
2023/04/08 00:04:25;;;;;;;14.18;5.13;;;10.50;94.40;;;;;;5116686;28;20031;-67
2023/04/08 00:06:50;;;;;;;17.05;5.65;;;10.60;94.70;;;;;;5116790;28;20122;-68
2023/04/08 00:09:16;;;;;;;14.77;5.60;;;10.70;93.20;;;;;;5115943;28;20031;-67
2023/04/08 00:11:42;;;;;;;19.67;5.47;;;10.80;90.20;;;;;;5116555;28;20045;-67
2023/04/08 00:14:08;;;;;;;16.52;5.75;;;10.60;92.30;;;;;;5116788;28;20028;-66
2023/04/08 00:16:34;;;;;;;17.52;6.10;;;10.60;93.60;;;;;;5116582;28;20077;-66
2023/04/08 00:19:00;;;;;;;15.73;5.28;;;10.50;95.90;;;;;;5116641;28;20024;-66
2023/04/08 00:21:26;;;;;;;13.63;5.45;;;10.50;96.50;;;;;;5116820;28;20098;-66
2023/04/08 00:23:52;;;;;;;17.95;6.05;;;10.50;96.50;;;;;;5116649;28;20049;-66
2023/04/08 00:26:18;;;;;;;17.08;6.22;;;10.60;95.80;;;;;;5116644;28;20040;-66
2023/04/08 00:28:45;;;;;;;18.30;6.00;;;10.60;95.80;;;;;;5115788;28;20028;-66
2023/04/08 00:31:11;;;;;;;16.80;6.03;;;10.60;97.00;;;;;;5117008;28;20104;-66
2023/04/08 00:33:37;;;;;;;15.40;6.72;;;10.60;96.20;;;;;;5120262;28;20090;-66
2023/04/08 00:36:03;;;;;;;14.57;5.70;;;10.60;96.10;;;;;;5119985;28;20055;-66
2023/04/08 00:38:29;;;;;;;19.63;6.28;;;10.60;96.60;;;;;;5120037;28;20031;-66
2023/04/08 00:40:55;;;;;;;14.23;5.90;;;10.70;96.90;;;;;;5119874;28;20176;-66
2023/04/08 00:43:21;;;;;;;15.48;6.50;;;10.60;96.40;;;;;;5119972;28;20071;-66
2023/04/08 00:45:47;;;;;;;14.60;6.70;;;10.60;96.90;;;;;;5119177;28;20036;-66
2023/04/08 00:48:13;;;;;;;14.73;6.57;;;10.70;95.90;;;;;;5119759;28;20042;-66
2023/04/08 00:50:39;;;;;;;14.95;7.05;;;10.70;94.30;;;;;;5119769;28;20031;-66
2023/04/08 00:53:05;;;;;;;19.27;7.20;;;10.70;94.30;;;;;;5119720;28;20031;-66
2023/04/08 00:55:31;;;;;;;14.57;6.50;;;10.70;93.40;;;;;;5118968;28;20023;-66
2023/04/08 00:57:57;;;;;;;15.48;6.88;;;10.60;94.00;;;;;;5119743;28;20024;-66
2023/04/08 01:00:24;;;;;;;21.70;7.85;;;10.70;94.40;;;;;;5118809;28;20038;-66
2023/04/08 01:03:07;;;;;;;21.88;8.38;;;10.70;93.50;;;;;;5119044;28;20456;-66
2023/04/08 01:05:58;;;;;;;14.23;6.82;;;10.80;93.80;;;;;;5118740;28;20350;-66
2023/04/08 01:08:25;;;;;;;24.98;8.20;;;10.80;93.80;;;;;;5118693;28;20027;-67
2023/04/08 01:10:53;;;;;;;15.43;8.40;;;10.80;92.90;;;;;;5119357;28;20040;-67
2023/04/08 01:13:25;;;;;;;24.65;8.60;;;10.70;93.40;;;;;;5118847;28;20035;-66
2023/04/08 01:15:52;;;;;;;19.40;8.75;;;10.70;93.90;;;;;;5101559;28;20028;-66
2023/04/08 01:18:20;;;;;;;19.15;8.07;;;10.60;94.50;;;;;;5119183;28;20092;-67
2023/04/08 01:20:48;;;;;;;15.43;7.57;;;10.70;94.70;;;;;;5119344;28;20027;-67
2023/04/08 01:23:41;;;;;;;18.15;7.88;;;10.70;94.70;;;;;;5119157;28;20035;-67
2023/04/08 01:26:11;;;;;;;23.38;8.55;;;10.70;95.40;;;;;;5119293;28;20448;-66
2023/04/08 01:28:38;;;;;;;17.80;7.70;;;10.70;94.90;;;;;;5119045;28;20312;-67
2023/04/08 01:31:05;;;;;;;17.52;8.43;;;10.70;93.50;;;;;;5118610;28;20039;-66
2023/04/08 01:33:31;;;;;;;23.90;8.50;;;10.70;94.20;;;;;;5118247;28;20042;-67
2023/04/08 01:35:57;;;;;;;16.02;8.02;;;10.70;93.80;;;;;;5118883;27;20090;-67
2023/04/08 01:38:25;;;;;;;20.55;8.05;;;10.60;94.30;;;;;;5119280;28;20423;-66
2023/04/08 01:40:53;;;;;;;19.83;8.65;;;10.60;94.50;;;;;;5118705;28;20023;-67
2023/04/08 01:43:20;;;;;;;20.40;8.95;;;10.60;95.50;;;;;;5117802;27;20028;-67
2023/04/08 01:45:47;;;;;;;15.88;8.70;;;10.60;95.20;;;;;;5118042;28;20031;-67
2023/04/08 01:48:14;;;;;;;27.83;9.40;;;10.60;95.80;;;;;;5100965;28;20077;-67
2023/04/08 01:50:42;;;;;;;20.98;9.05;;;10.60;95.90;;;;;;5117753;28;20062;-67
2023/04/08 01:53:09;;;;;;;23.10;9.20;;;10.60;96.00;;;;;;5118460;28;20123;-67
2023/04/08 01:55:37;;;;;;;21.58;9.27;;;10.60;95.30;;;;;;5100839;28;20024;-67
2023/04/08 01:58:06;;;;;;;18.50;10.18;;;10.50;96.80;;;;;;5117844;28;20312;-67
2023/04/08 02:00:33;;;;;;;19.42;9.73;;;10.60;96.70;;;;;;5100645;28;20035;-67
2023/04/08 02:03:01;;;;;;;26.70;10.95;;;10.60;97.00;;;;;;5118484;28;20072;-67
2023/04/08 02:05:27;;;;;;;15.80;8.75;;;10.60;97.30;;;;;;5100796;28;20055;-67
2023/04/08 02:07:52;;;;;;;22.90;9.10;;;10.60;97.50;;;;;;5117614;28;20070;-67
2023/04/08 02:10:19;;;;;;;23.15;9.90;;;10.60;97.80;;;;;;5100571;28;20126;-67
2023/04/08 02:12:46;;;;;;;22.45;9.98;;;10.60;98.10;;;;;;5118267;28;20115;-67
2023/04/08 02:15:12;;;;;;;20.95;9.82;;;10.60;97.80;;;;;;5118200;28;20404;-68
2023/04/08 02:17:43;;;;;;;21.02;10.13;;;10.60;97.60;;;;;;5100317;28;20074;-67
2023/04/08 02:20:15;;;;;;;23.40;10.63;;;10.60;97.60;;;;;;5118948;28;20028;-67
2023/04/08 02:23:08;;;;;;;20.63;10.48;;;10.60;98.50;;;;;;5118395;28;20180;-67
2023/04/08 02:25:37;;;;;;;27.88;11.07;;;10.60;98.20;;;;;;5118157;28;20104;-67
2023/04/08 02:28:06;;;;;;;18.88;10.23;;;10.60;98.70;;;;;;5117061;28;20039;-67
2023/04/08 02:30:34;;;;;;;20.77;10.73;;;10.60;98.40;;;;;;5117904;28;20054;-67
2023/04/08 02:33:02;;;;;;;27.45;12.10;;;10.50;99.50;;;;;;5117858;28;20035;-67
2023/04/08 02:35:28;;;;;;;20.10;11.38;;;10.50;99.70;;;;;;5099915;28;20057;-66
2023/04/08 02:37:54;;;;;;;22.65;12.52;;;10.50;99.60;;;;;;5100365;28;20446;-68
2023/04/08 02:40:28;;;;;;;33.72;13.80;;;10.50;99.90;;;;;;5117521;28;20031;-67
2023/04/08 02:42:57;;;;;;;26.35;12.70;;;10.50;99.90;;;;;;5116880;28;20047;-67
2023/04/08 02:45:36;;;;;;;24.05;12.85;;;10.60;99.60;;;;;;5118176;28;20396;-67
2023/04/08 02:48:02;;;;;;;29.45;14.15;;;10.50;99.90;;;;;;5117566;28;20110;-66
2023/04/08 02:50:28;;;;;;;24.52;13.10;;;10.60;99.60;;;;;;5116632;28;20032;-65
2023/04/08 02:52:55;;;;;;;23.90;13.10;;;10.50;99.30;;;;;;5099846;28;20034;-65
2023/04/08 02:55:20;;;;;;;26.75;13.85;;;10.50;99.50;;;;;;5116462;28;20019;-65
2023/04/08 02:57:47;;;;;;;28.90;13.88;;;10.50;99.40;;;;;;5099868;28;20038;-65
2023/04/08 03:00:14;;;;;;;24.15;12.93;;;10.50;99.90;;;;;;5116742;28;20031;-65
2023/04/08 03:02:40;;;;;;;28.55;13.88;;;10.50;99.90;;;;;;5116534;28;20026;-66
2023/04/08 03:05:06;;;;;;;33.60;15.52;;;10.50;99.90;;;;;;5116598;28;20379;-65
2023/04/08 03:07:32;;;;;;;24.05;13.05;;;10.50;99.90;;;;;;5117320;28;20085;-66
2023/04/08 03:09:58;;;;;;;24.33;13.63;;;10.60;99.40;;;;;;5117284;28;20088;-66
2023/04/08 03:12:26;;;;;;;23.13;13.35;;;10.50;99.80;;;;;;5117276;28;20027;-66
2023/04/08 03:14:52;;;;;;;24.08;14.27;;;10.50;99.90;;;;;;5117477;28;20034;-66
2023/04/08 03:17:18;;;;;;;32.75;15.55;;;10.50;99.90;;;;;;5117374;28;20036;-66
2023/04/08 03:19:43;;;;;;;27.17;14.80;;;10.60;99.90;;;;;;5117685;28;20121;-66
2023/04/08 03:22:09;;;;;;;24.45;13.98;;;10.60;99.90;;;;;;5116562;28;20024;-66
2023/04/08 03:24:36;;;;;;;24.75;14.77;;;10.60;99.70;;;;;;5116434;28;20406;-66
2023/04/08 03:27:02;;;;;;;25.05;14.32;;;10.60;99.90;;;;;;5116557;28;20411;-66
2023/04/08 03:29:28;;;;;;;27.25;14.07;;;10.60;99.50;;;;;;5116438;28;20382;-66
2023/04/08 03:31:54;;;;;;;27.85;14.75;;;10.60;99.60;;;;;;5117148;28;20063;-66
2023/04/08 03:34:20;;;;;;;26.05;14.18;;;10.60;99.90;;;;;;5099341;28;20032;-66
2023/04/08 03:36:46;;;;;;;25.10;13.90;;;10.60;99.80;;;;;;5099341;28;20035;-67
2023/04/08 03:39:11;;;;;;;29.80;14.82;;;10.60;99.90;;;;;;5116233;28;20024;-66
2023/04/08 03:41:37;;;;;;;26.70;15.20;;;10.60;99.50;;;;;;5116099;28;20062;-65
2023/04/08 03:44:03;;;;;;;25.33;14.25;;;10.60;99.80;;;;;;5099394;28;20400;-65
2023/04/08 03:46:29;;;;;;;24.40;14.27;;;10.60;99.90;;;;;;5116258;28;20070;-66
2023/04/08 03:48:54;;;;;;;29.67;15.55;;;10.60;99.80;;;;;;5116798;28;20115;-66
2023/04/08 03:51:20;;;;;;;30.55;16.13;;;10.60;99.50;;;;;;5116710;28;20092;-66
2023/04/08 03:53:48;;;;;;;28.30;15.38;;;10.60;99.00;;;;;;5116272;28;20042;-66
2023/04/08 03:56:14;;;;;;;29.88;15.80;;;10.60;99.50;;;;;;5116759;28;20035;-65
2023/04/08 03:58:40;;;;;;;27.88;14.57;;;10.60;99.70;;;;;;5116237;28;20028;-66
2023/04/08 04:01:06;;;;;;;28.10;15.25;;;10.50;99.50;;;;;;5116857;28;20122;-67
2023/04/08 04:03:31;;;;;;;28.08;15.02;;;10.50;99.90;;;;;;5116949;28;20504;-67
2023/04/08 04:05:57;;;;;;;27.85;15.20;;;10.50;99.90;;;;;;5117827;28;20023;-66
2023/04/08 04:08:23;;;;;;;25.75;16.30;;;10.50;99.90;;;;;;5102982;28;20055;-66
2023/04/08 04:10:50;;;;;;;28.05;15.48;;;10.50;99.90;;;;;;5102832;28;20082;-66
2023/04/08 04:13:16;;;;;;;24.58;15.77;;;10.50;99.90;;;;;;5120733;28;20117;-66
2023/04/08 04:15:42;;;;;;;22.15;14.38;;;10.50;99.90;;;;;;5119805;28;20024;-66
2023/04/08 04:18:08;;;;;;;26.67;16.00;;;10.50;99.90;;;;;;5120471;28;20023;-66
2023/04/08 04:20:35;;;;;;;29.33;16.15;;;10.50;99.90;;;;;;5119721;28;20031;-67
2023/04/08 04:23:01;;;;;;;25.15;15.73;;;10.50;99.90;;;;;;5120698;28;20081;-66
2023/04/08 04:25:26;;;;;;;27.52;16.40;;;10.60;99.90;;;;;;5120432;28;20116;-66
2023/04/08 04:27:52;;;;;;;26.70;16.67;;;10.60;99.90;;;;;;5120314;28;20032;-66
2023/04/08 04:30:18;;;;;;;25.65;16.50;;;10.60;99.90;;;;;;5120226;28;20032;-66
2023/04/08 04:32:44;;;;;;;23.55;15.40;;;10.60;99.90;;;;;;5119486;28;20035;-66
2023/04/08 04:35:11;;;;;;;31.15;15.75;;;10.60;99.90;;;;;;5119592;28;20051;-66
2023/04/08 04:37:36;;;;;;;34.40;17.25;;;10.60;99.90;;;;;;5119386;28;20095;-67
2023/04/08 04:40:06;;;;;;;31.05;16.90;;;10.60;99.90;;;;;;5120225;28;20103;-66
2023/04/08 04:42:32;;;;;;;29.75;16.77;;;10.50;99.90;;;;;;5119926;28;20071;-66
2023/04/08 04:44:58;;;;;;;24.67;15.50;;;10.50;99.90;;;;;;5120102;28;20067;-66
2023/04/08 04:47:25;;;;;;;30.02;17.02;;;10.60;99.90;;;;;;5119983;28;20308;-66
2023/04/08 04:49:51;;;;;;;24.73;16.00;;;10.50;99.90;;;;;;5119758;28;20400;-66
2023/04/08 04:52:16;;;;;;;33.40;17.63;;;10.60;99.90;;;;;;5119034;28;20110;-67
2023/04/08 04:54:42;;;;;;;27.70;17.50;;;10.60;99.90;;;;;;5119001;28;20051;-66
2023/04/08 04:57:10;;;;;;;30.73;16.48;;;10.60;99.90;;;;;;5101875;28;20031;-67
2023/04/08 04:59:36;;;;;;;36.65;17.65;;;10.60;99.90;;;;;;5102237;28;20024;-66
2023/04/08 05:02:02;;;;;;;32.70;17.60;;;10.50;99.90;;;;;;5118988;28;20031;-66
2023/04/08 05:04:28;;;;;;;31.00;16.85;;;10.50;99.90;;;;;;5119052;28;20043;-67
2023/04/08 05:06:53;;;;;;;29.38;17.77;;;10.60;99.90;;;;;;5118960;28;20032;-66
2023/04/08 05:09:19;;;;;;;34.95;18.10;;;10.60;99.90;;;;;;5101990;28;20090;-67
2023/04/08 05:11:45;;;;;;;29.15;17.45;;;10.60;99.90;;;;;;5119728;28;20040;-66
2023/04/08 05:14:11;;;;;;;25.17;16.02;;;10.60;99.90;;;;;;5118566;28;20277;-67
2023/04/08 05:16:38;;;;;;;29.25;17.50;;;10.70;99.90;;;;;;5118624;28;20419;-66
2023/04/08 05:19:03;;;;;;;34.97;18.73;;;10.60;99.90;;;;;;5119419;28;20032;-66
2023/04/08 05:21:30;;;;;;;30.48;17.60;;;10.60;99.90;;;;;;5101437;28;20035;-67
2023/04/08 05:23:55;;;;;;;33.70;18.55;;;10.60;99.90;;;;;;5118480;28;20032;-66
2023/04/08 05:26:22;;;;;;;35.85;19.67;;;10.60;99.90;;;;;;5101512;28;20051;-66
2023/04/08 05:28:50;;;;;;;35.10;18.25;;;10.60;99.90;;;;;;5119076;28;20404;-66
2023/04/08 05:31:16;;;;;;;30.45;18.27;;;10.70;99.90;;;;;;5118304;28;20019;-66
2023/04/08 05:33:42;;;;;;;34.63;19.20;;;10.70;99.90;;;;;;5119078;28;20027;-66
2023/04/08 05:36:09;;;;;;;34.58;19.58;;;10.70;99.90;;;;;;5118411;28;20028;-67
2023/04/08 05:38:35;;;;;;;34.25;18.83;;;10.60;99.90;;;;;;5118080;28;20024;-68
2023/04/08 05:41:01;;;;;;;35.15;18.15;;;10.50;99.90;;;;;;5117843;28;20034;-66
2023/04/08 05:43:27;;;;;;;30.90;18.88;;;10.50;99.90;;;;;;5118803;28;20035;-66
2023/04/08 05:45:52;;;;;;;40.92;20.23;;;10.50;99.90;;;;;;5118600;28;20047;-66
2023/04/08 05:48:18;;;;;;;31.98;18.77;;;10.50;99.90;;;;;;5117740;28;20034;-67
2023/04/08 05:50:45;;;;;;;33.65;18.45;;;10.50;99.90;;;;;;5118579;28;20028;-66
2023/04/08 05:53:11;;;;;;;40.72;20.73;;;10.50;99.90;;;;;;5118475;28;20131;-66
2023/04/08 05:55:36;;;;;;;31.02;19.52;;;10.60;99.90;;;;;;5118458;28;20190;-66
2023/04/08 05:58:02;;;;;;;31.65;19.08;;;10.70;99.90;;;;;;5117690;28;20404;-67
2023/04/08 06:00:28;;;;;;;30.13;18.25;;;10.70;99.90;;;;;;5118482;28;20046;-67
2023/04/08 06:02:54;;;;;;;33.00;17.92;;;10.80;99.90;;;;;;5117699;28;20096;-67
2023/04/08 06:05:20;;;;;;;27.50;17.58;;;10.80;99.90;;;;;;5117785;28;20028;-66
2023/04/08 06:07:46;;;;;;;30.73;18.30;;;10.70;99.90;;;;;;5117705;28;20061;-66
2023/04/08 06:10:11;;;;;;;32.63;17.77;;;10.70;99.90;;;;;;5118430;28;20055;-66
2023/04/08 06:12:38;;;;;;;33.25;19.35;;;10.60;99.90;;;;;;5117624;28;20027;-66
2023/04/08 06:15:06;;;;;;;29.98;17.58;;;10.60;99.90;;;;;;5118152;28;20300;-66
2023/04/08 06:17:31;;;;;;;36.22;18.55;;;10.70;99.90;;;;;;5118026;28;20051;-66
2023/04/08 06:19:57;;;;;;;31.35;18.33;;;10.80;99.90;;;;;;5117323;28;20059;-66
2023/04/08 06:22:23;;;;;;;30.52;18.63;;;10.90;99.90;;;;;;5117247;28;20035;-66
2023/04/08 06:24:49;;;;;;;30.45;16.85;;;10.90;99.90;;;;;;5118238;28;20073;-66
2023/04/08 06:27:15;;;;;;;28.63;17.98;;;11.00;99.90;;;;;;5118202;28;20023;-66
2023/04/08 06:29:41;;;;;;;34.70;18.00;;;11.20;99.70;;;;;;5117299;28;20032;-66
2023/04/08 06:32:06;;;;;;;28.13;17.38;;;11.30;98.90;;;;;;5117999;28;20038;-67
2023/04/08 06:34:32;;;;;;;28.42;17.58;;;11.30;97.90;;;;;;5117718;28;20025;-66
2023/04/08 06:36:58;;;;;;;30.33;17.38;;;11.40;97.20;;;;;;5118416;28;20100;-66
2023/04/08 06:39:24;;;;;;;27.20;18.23;;;11.50;96.60;;;;;;5116968;28;20304;-66
2023/04/08 06:41:50;;;;;;;30.02;18.75;;;11.50;95.60;;;;;;5116922;28;20074;-66
2023/04/08 06:44:26;;;;;;;33.60;18.67;;;11.50;94.80;;;;;;5086330;28;20047;-66
2023/04/08 06:46:52;;;;;;;38.22;20.85;;;11.50;95.00;;;;;;5117698;28;20031;-66
2023/04/08 06:49:18;;;;;;;29.70;19.60;;;11.50;94.60;;;;;;5116906;28;20039;-66
2023/04/08 06:51:44;;;;;;;32.60;20.92;;;11.50;94.10;;;;;;5099900;28;20108;-66
2023/04/08 06:54:10;;;;;;;33.63;19.60;;;11.60;93.90;;;;;;5117563;28;20320;-66
2023/04/08 06:56:36;;;;;;;35.03;19.75;;;11.60;93.70;;;;;;5117142;28;20035;-66
2023/04/08 06:59:03;;;;;;;33.63;20.65;;;11.60;92.60;;;;;;5117487;28;20028;-66
2023/04/08 07:01:30;;;;;;;30.20;19.60;;;11.60;92.90;;;;;;5117508;28;20042;-66
2023/04/08 07:03:57;;;;;;;38.22;20.98;;;11.70;92.00;;;;;;5117463;28;20077;-66
2023/04/08 07:06:23;;;;;;;31.95;19.67;;;11.80;90.50;;;;;;5117901;28;20388;-66
2023/04/08 07:08:49;;;;;;;35.55;20.58;;;11.90;89.20;;;;;;5117546;28;20035;-66
2023/04/08 07:11:15;;;;;;;34.28;20.70;;;12.00;87.50;;;;;;5117262;28;20031;-66
2023/04/08 07:13:42;;;;;;;28.00;19.27;;;12.00;86.60;;;;;;5117241;28;20096;-66
2023/04/08 07:16:08;;;;;;;25.35;18.58;;;12.00;85.50;;;;;;5117179;28;20035;-67
2023/04/08 07:18:33;;;;;;;30.55;18.83;;;12.10;85.20;;;;;;5116548;28;20446;-66
2023/04/08 07:20:59;;;;;;;33.90;20.38;;;12.30;83.90;;;;;;5116544;28;20127;-66
2023/04/08 07:23:26;;;;;;;39.80;21.88;;;12.40;74.10;;;;;;5117054;28;20040;-66
2023/04/08 07:25:52;;;;;;;27.25;19.17;;;12.60;68.70;;;;;;5117147;28;20035;-66
2023/04/08 07:28:19;;;;;;;33.50;20.73;;;12.50;66.90;;;;;;5116310;28;20035;-66
2023/04/08 07:30:45;;;;;;;30.20;18.15;;;12.60;65.00;;;;;;5116299;28;20071;-67
2023/04/08 07:33:11;;;;;;;32.72;19.38;;;12.60;67.50;;;;;;5116047;28;20312;-66
2023/04/08 07:35:37;;;;;;;29.98;19.23;;;12.70;66.80;;;;;;5117157;28;20028;-66
2023/04/08 07:38:03;;;;;;;30.75;18.40;;;12.70;63.90;;;;;;5116994;28;20030;-66
2023/04/08 07:40:29;;;;;;;29.10;17.95;;;12.90;59.60;;;;;;5117335;28;20028;-66
2023/04/08 07:42:55;;;;;;;34.42;18.88;;;12.90;57.10;;;;;;5120234;28;20247;-66
2023/04/08 07:45:21;;;;;;;29.48;18.13;;;13.00;55.80;;;;;;5121090;28;20027;-67
2023/04/08 07:47:47;;;;;;;28.55;18.27;;;13.10;55.50;;;;;;5121023;28;20028;-66
2023/04/08 07:50:13;;;;;;;29.88;17.98;;;13.00;54.60;;;;;;5120807;28;20032;-66
2023/04/08 07:52:39;;;;;;;26.42;18.63;;;13.10;52.30;;;;;;5120818;28;20023;-67
2023/04/08 07:55:05;;;;;;;27.95;18.48;;;13.10;52.90;;;;;;5120104;28;20023;-66
2023/04/08 07:57:31;;;;;;;32.33;18.73;;;13.20;50.90;;;;;;5120171;28;20028;-66
2023/04/08 07:59:57;;;;;;;27.70;16.92;;;13.30;48.50;;;;;;5120619;28;20040;-66
2023/04/08 08:02:23;;;;;;;31.27;18.60;;;13.30;46.30;;;;;;5119959;28;20072;-67
2023/04/08 08:04:50;;;;;;;23.67;16.80;;;13.30;46.00;;;;;;5103035;28;20067;-67
2023/04/08 08:07:15;;;;;;;28.67;17.65;;;13.30;45.20;;;;;;5120723;28;20028;-67
2023/04/08 08:09:41;;;;;;;24.77;16.23;;;13.30;41.20;;;;;;5120554;28;20046;-67
2023/04/08 08:12:07;;;;;;;19.67;13.45;;;13.20;35.00;;;;;;5120961;28;20039;-67
2023/04/08 08:14:33;;;;;;;21.25;14.80;;;13.30;30.00;;;;;;5120687;28;20296;-67
2023/04/08 08:16:58;;;;;;;22.98;15.98;;;13.30;30.50;;;;;;5119692;28;20024;-66
2023/04/08 08:19:24;;;;;;;23.95;15.27;;;13.40;30.60;;;;;;5102644;28;20126;-65
2023/04/08 08:21:51;;;;;;;21.65;14.30;;;13.40;32.90;;;;;;5119767;28;20031;-66
2023/04/08 08:24:16;;;;;;;22.77;16.05;;;13.50;30.00;;;;;;5102556;28;20051;-66
2023/04/08 08:26:44;;;;;;;20.63;14.40;;;13.50;33.80;;;;;;5120690;28;20110;-66
2023/04/08 08:29:10;;;;;;;21.90;14.60;;;13.60;33.30;;;;;;5120360;28;20453;-66
2023/04/08 08:31:36;;;;;;;18.65;14.07;;;13.80;21.60;;;;;;5119611;28;20039;-66
2023/04/08 08:34:02;;;;;;;19.73;12.88;;;13.80;17.60;;;;;;5120323;28;20036;-67
2023/04/08 08:36:28;;;;;;;20.52;14.48;;;13.90;18.80;;;;;;5120153;28;20019;-67
2023/04/08 08:38:54;;;;;;;20.75;14.77;;;14.00;17.20;;;;;;5119504;28;20032;-67
2023/04/08 08:41:20;;;;;;;19.27;14.10;;;14.00;10.60;;;;;;5119951;28;20043;-67
2023/04/08 08:43:47;;;;;;;23.20;14.55;;;13.90;10.40;;;;;;5120145;28;20043;-67
2023/04/08 08:46:16;;;;;;;19.15;13.23;;;13.90;10.60;;;;;;5120074;28;20308;-66
2023/04/08 08:48:42;;;;;;;19.80;13.85;;;14.00;13.30;;;;;;5119929;28;20067;-67
2023/04/08 08:51:09;;;;;;;15.48;11.93;;;13.70;16.60;;;;;;5118883;28;20040;-66
2023/04/08 08:53:35;;;;;;;18.13;12.70;;;13.90;17.10;;;;;;5119008;28;20351;-66
2023/04/08 08:56:02;;;;;;;16.58;12.23;;;14.20;9.10;;;;;;5102177;28;20027;-67
2023/04/08 08:58:28;;;;;;;18.88;13.05;;;14.40;1.00;;;;;;5119678;28;20309;-67
2023/04/08 09:00:54;;;;;;;18.30;13.05;;;14.40;1.00;;;;;;5119808;28;20027;-67
2023/04/08 09:03:26;;;;;;;16.55;13.13;;;14.40;1.00;;;;;;5119572;28;20475;-67
2023/04/08 09:06:00;;;;;;;19.15;13.20;;;14.60;1.00;;;;;;5119744;28;20079;-66
2023/04/08 09:08:30;;;;;;;18.63;12.38;;;14.70;1.00;;;;;;5119685;28;20451;-67
2023/04/08 09:11:18;;;;;;;19.02;13.65;;;14.90;1.00;;;;;;5119705;28;20039;-66
2023/04/08 09:13:45;;;;;;;17.00;12.93;;;15.20;1.00;;;;;;5118692;28;20063;-67
2023/04/08 09:16:16;;;;;;;18.77;13.90;;;15.40;1.00;;;;;;5119113;28;20035;-68
2023/04/08 09:18:44;;;;;;;18.23;13.93;;;15.60;1.00;;;;;;5118781;28;20040;-67
2023/04/08 09:21:15;;;;;;;16.88;12.95;;;15.70;1.00;;;;;;5119421;28;20059;-67
2023/04/08 09:23:42;;;;;;;18.10;12.73;;;15.90;1.00;;;;;;5119273;28;20040;-67
2023/04/08 09:26:21;;;;;;;17.17;12.57;;;15.80;1.00;;;;;;5118543;28;20019;-67
2023/04/08 09:29:11;;;;;;;18.02;12.15;;;15.90;1.00;;;;;;5119264;27;20114;-67
2023/04/08 09:31:41;;;;;;;17.58;12.93;;;15.90;1.00;;;;;;5118463;28;20043;-67
2023/04/08 09:34:16;;;;;;;17.17;12.43;;;16.20;1.00;;;;;;5118410;28;20062;-67
2023/04/08 09:36:43;;;;;;;17.13;12.23;;;16.50;1.00;;;;;;5118834;28;20039;-68
2023/04/08 09:39:09;;;;;;;18.27;12.95;;;16.80;1.00;;;;;;5118128;28;20072;-68
2023/04/08 09:41:37;;;;;;;18.90;13.68;;;16.60;1.00;;;;;;5118753;28;20464;-67
2023/04/08 09:44:05;;;;;;;15.80;11.75;;;16.70;1.00;;;;;;5118807;28;20024;-70
2023/04/08 09:46:46;;;;;;;18.25;13.10;;;16.70;1.00;;;;;;5118782;28;20419;-69
2023/04/08 09:49:20;;;;;;;16.92;12.80;;;16.40;1.00;;;;;;5118848;28;20300;-67
2023/04/08 09:51:52;;;;;;;19.35;15.07;;;16.30;1.00;;;;;;5118003;28;20049;-65
2023/04/08 09:54:21;;;;;;;24.73;18.77;;;16.50;1.00;;;;;;5118022;28;20043;-66
2023/04/08 09:56:57;;;;;;;26.55;18.80;;;16.30;1.00;;;;;;5118679;28;20024;-67
2023/04/08 09:59:26;;;;;;;25.92;19.50;;;16.10;1.00;;;;;;5118710;28;20020;-67
2023/04/08 10:01:55;;;;;;;27.80;19.80;;;15.90;1.00;;;;;;5118609;28;20027;-67
2023/04/08 10:04:23;;;;;;;27.25;20.55;;;15.90;1.00;;;;;;5116985;28;20058;-67
2023/04/08 10:06:58;;;;;;;29.65;20.10;;;15.60;1.00;;;;;;5118446;28;20080;-66
2023/04/08 10:09:26;;;;;;;27.05;20.40;;;15.30;1.00;;;;;;5117617;28;20041;-67
2023/04/08 10:11:52;;;;;;;29.95;20.77;;;14.90;1.00;;;;;;5117594;28;20467;-66
2023/04/08 10:14:20;;;;;;;29.08;20.60;;;14.60;1.00;;;;;;5118243;28;20032;-66
2023/04/08 10:16:46;;;;;;;27.83;19.45;;;14.60;1.00;;;;;;5118801;28;20070;-67
2023/04/08 10:19:51;;;;;;;30.27;21.10;;;14.90;1.00;;;;;;5118072;28;20059;-66
2023/04/08 10:22:40;;;;;;;28.00;19.70;;;15.80;1.00;;;;;;5056223;28;20370;-68
2023/04/08 10:25:14;;;;;;;27.48;18.77;;;16.30;1.00;;;;;;5048393;28;20084;-66
2023/04/08 10:27:40;;;;;;;26.73;19.10;;;16.50;1.00;;;;;;5098967;28;20414;-65
2023/04/08 10:30:26;;;;;;;28.25;17.92;;;17.00;1.00;;;;;;5118064;28;20096;-66
2023/04/08 10:32:58;;;;;;;28.52;18.55;;;17.00;1.00;;;;;;5117242;28;20392;-66
2023/04/08 10:35:41;;;;;;;24.55;17.90;;;17.20;1.00;;;;;;5118056;28;20111;-67
2023/04/08 10:38:07;;;;;;;22.05;17.25;;;17.40;1.00;;;;;;5117190;28;20181;-66
2023/04/08 10:40:38;;;;;;;24.20;18.35;;;17.70;1.00;;;;;;5117887;28;20035;-65
2023/04/08 10:43:04;;;;;;;19.40;14.63;;;17.50;1.00;;;;;;5117778;28;20142;-66
2023/04/08 10:45:30;;;;;;;20.75;15.70;;;17.70;1.00;;;;;;5116977;28;20400;-66
2023/04/08 10:47:56;;;;;;;20.75;16.05;;;18.50;1.00;;;;;;5117725;28;20058;-68
2023/04/08 10:50:22;;;;;;;19.52;14.77;;;19.80;99.90;;;;;;5117018;28;20028;-66
2023/04/08 10:52:53;;;;;;;13.93;12.13;;;20.80;99.90;;;;;;5117842;28;20046;-66
2023/04/08 10:55:26;;;;;;;15.25;11.98;;;21.60;99.90;;;;;;5099933;28;20380;-67
2023/04/08 10:57:55;;;;;;;13.20;11.57;;;22.70;99.90;;;;;;5083175;28;20032;-67
2023/04/08 11:00:37;;;;;;;14.45;11.57;;;22.70;1.00;;;;;;5117476;28;20027;-67
2023/04/08 11:03:05;;;;;;;12.13;10.50;;;22.20;1.00;;;;;;5116851;28;20422;-66
2023/04/08 11:05:31;;;;;;;12.98;11.48;;;22.60;99.90;;;;;;5117350;28;20028;-67
2023/04/08 11:07:58;;;;;;;12.32;10.55;;;21.10;99.90;;;;;;5117350;28;20062;-66
2023/04/08 11:10:25;;;;;;;10.38;8.68;;;20.90;99.90;;;;;;5099661;28;20035;-66
2023/04/08 11:12:54;;;;;;;9.75;8.35;;;21.00;63.20;;;;;;5116625;28;20031;-66
2023/04/08 11:15:21;;;;;;;10.63;9.18;;;20.00;1.00;;;;;;5116448;28;20346;-66
2023/04/08 11:17:48;;;;;;;10.48;9.38;;;20.90;97.30;;;;;;5117306;28;20032;-66
2023/04/08 11:20:14;;;;;;;8.75;7.93;;;21.80;99.90;;;;;;5117280;28;20046;-66
2023/04/08 11:22:40;;;;;;;10.05;9.05;;;22.40;99.90;;;;;;5116488;28;20061;-66
2023/04/08 11:25:08;;;;;;;10.70;9.60;;;22.30;99.90;;;;;;5117154;28;20355;-66
2023/04/08 11:27:35;;;;;;;11.38;9.75;;;22.10;1.00;;;;;;5099536;28;20305;-66
2023/04/08 11:30:02;;;;;;;10.02;9.00;;;22.60;1.00;;;;;;5117043;28;20102;-65
2023/04/08 11:32:29;;;;;;;9.82;8.55;;;22.90;1.00;;;;;;5116275;28;20028;-65
2023/04/08 11:34:54;;;;;;;9.23;8.32;;;23.30;1.00;;;;;;5117100;28;20032;-66
2023/04/08 11:37:21;;;;;;;10.73;9.45;;;24.70;99.90;;;;;;5116341;28;20035;-66
2023/04/08 11:39:47;;;;;;;10.32;9.20;;;24.70;1.00;;;;;;5099222;28;20031;-66
2023/04/08 11:42:32;;;;;;;11.00;9.32;;;23.40;1.00;;;;;;5116726;28;20061;-67
2023/04/08 11:44:58;;;;;;;10.80;9.75;;;21.20;99.90;;;;;;5116516;28;20153;-66
2023/04/08 11:47:32;;;;;;;12.07;10.52;;;19.60;1.00;;;;;;5116092;28;20126;-66
2023/04/08 11:49:58;;;;;;;10.98;9.40;;;19.90;78.50;;;;;;5116040;28;20035;-66
2023/04/08 11:52:40;;;;;;;11.25;9.50;;;21.80;99.90;;;;;;5116968;28;20036;-66
2023/04/08 11:55:06;;;;;;;13.20;8.18;;;23.70;99.90;;;;;;5116294;28;20028;-67
2023/04/08 11:57:32;;;;;;;11.30;9.63;;;25.20;1.00;;;;;;5099655;28;20126;-66
2023/04/08 11:59:58;;;;;;;12.02;9.90;;;26.80;99.90;;;;;;5117014;28;20107;-66
2023/04/08 12:02:24;;;;;;;13.75;10.85;;;26.90;1.00;;;;;;5116598;28;20038;-66
2023/04/08 12:04:50;;;;;;;10.32;9.32;;;27.10;1.00;;;;;;5116893;28;20039;-67
2023/04/08 12:07:16;;;;;;;11.73;10.52;;;26.80;1.00;;;;;;5099349;28;20023;-67
2023/04/08 12:09:42;;;;;;;12.27;10.98;;;26.40;1.00;;;;;;5082591;28;20097;-67
2023/04/08 12:12:08;;;;;;;11.02;9.77;;;26.30;1.00;;;;;;5116668;28;20387;-67
2023/04/08 12:14:33;;;;;;;10.50;9.48;;;26.80;1.00;;;;;;5116763;28;20062;-67
2023/04/08 12:16:59;;;;;;;15.40;10.80;;;27.60;1.00;;;;;;5116708;28;20119;-67
2023/04/08 12:19:25;;;;;;;9.93;8.88;;;27.40;1.00;;;;;;5115867;28;20071;-67
2023/04/08 12:21:51;;;;;;;11.07;9.00;;;27.10;1.00;;;;;;5099197;28;20078;-67
2023/04/08 12:24:17;;;;;;;11.48;10.30;;;26.30;1.00;;;;;;5116604;28;20032;-67
2023/04/08 12:26:43;;;;;;;10.00;8.73;;;25.10;1.00;;;;;;5116607;28;20490;-67
2023/04/08 12:29:10;;;;;;;8.75;7.93;;;25.80;1.00;;;;;;5120484;28;20412;-66
2023/04/08 12:31:36;;;;;;;16.27;9.90;;;26.90;1.00;;;;;;5119735;28;20186;-67
2023/04/08 12:34:02;;;;;;;11.77;10.40;;;27.50;1.00;;;;;;5119694;28;20328;-66
2023/04/08 12:36:28;;;;;;;11.25;10.13;;;26.60;1.00;;;;;;5119667;28;20031;-66